sensor_id;sensor_type;location;lat;lon;timestamp;P1;durP1;ratioP1;P2;durP2;ratioP2
55609;SDS011;41486;52.502;13.486;2023-07-13T00:02:31;2.85;;;1.42;;
55609;SDS011;41486;52.502;13.486;2023-07-13T00:04:59;3.78;;;1.88;;
55609;SDS011;41486;52.502;13.486;2023-07-13T00:07:28;4.45;;;1.80;;
55609;SDS011;41486;52.502;13.486;2023-07-13T00:09:57;2.50;;;1.52;;
55609;SDS011;41486;52.502;13.486;2023-07-13T00:12:27;3.40;;;1.95;;
55609;SDS011;41486;52.502;13.486;2023-07-13T00:14:58;1.40;;;1.20;;
55609;SDS011;41486;52.502;13.486;2023-07-13T00:17:27;1.88;;;1.67;;
55609;SDS011;41486;52.502;13.486;2023-07-13T00:19:56;5.13;;;1.63;;
55609;SDS011;41486;52.502;13.486;2023-07-13T00:22:25;3.58;;;1.73;;
55609;SDS011;41486;52.502;13.486;2023-07-13T00:24:55;3.28;;;1.60;;
55609;SDS011;41486;52.502;13.486;2023-07-13T00:27:23;4.50;;;2.05;;
55609;SDS011;41486;52.502;13.486;2023-07-13T00:29:53;3.92;;;1.73;;
55609;SDS011;41486;52.502;13.486;2023-07-13T00:32:21;4.10;;;2.08;;
55609;SDS011;41486;52.502;13.486;2023-07-13T00:34:51;6.53;;;2.50;;
55609;SDS011;41486;52.502;13.486;2023-07-13T00:37:19;6.53;;;2.30;;
55609;SDS011;41486;52.502;13.486;2023-07-13T00:39:47;3.47;;;1.80;;
55609;SDS011;41486;52.502;13.486;2023-07-13T00:42:17;4.15;;;1.65;;
55609;SDS011;41486;52.502;13.486;2023-07-13T00:47:29;2.67;;;1.95;;
55609;SDS011;41486;52.502;13.486;2023-07-13T00:49:57;1.70;;;1.30;;
55609;SDS011;41486;52.502;13.486;2023-07-13T00:52:26;2.55;;;1.25;;
55609;SDS011;41486;52.502;13.486;2023-07-13T00:54:54;3.55;;;1.77;;
55609;SDS011;41486;52.502;13.486;2023-07-13T00:57:24;2.72;;;1.77;;
55609;SDS011;41486;52.502;13.486;2023-07-13T00:59:54;1.90;;;1.40;;
55609;SDS011;41486;52.502;13.486;2023-07-13T01:02:27;1.98;;;1.45;;
55609;SDS011;41486;52.502;13.486;2023-07-13T01:04:56;2.22;;;1.58;;
55609;SDS011;41486;52.502;13.486;2023-07-13T01:07:26;5.28;;;1.40;;
55609;SDS011;41486;52.502;13.486;2023-07-13T01:09:56;2.47;;;1.33;;
55609;SDS011;41486;52.502;13.486;2023-07-13T01:12:25;3.53;;;1.50;;
55609;SDS011;41486;52.502;13.486;2023-07-13T01:14:56;4.18;;;1.75;;
55609;SDS011;41486;52.502;13.486;2023-07-13T01:17:27;3.75;;;1.48;;
55609;SDS011;41486;52.502;13.486;2023-07-13T01:19:56;2.15;;;1.52;;
55609;SDS011;41486;52.502;13.486;2023-07-13T01:22:26;4.78;;;2.05;;
55609;SDS011;41486;52.502;13.486;2023-07-13T01:24:56;3.63;;;1.42;;
55609;SDS011;41486;52.502;13.486;2023-07-13T01:27:25;5.80;;;1.83;;
55609;SDS011;41486;52.502;13.486;2023-07-13T01:29:54;2.95;;;1.70;;
55609;SDS011;41486;52.502;13.486;2023-07-13T01:32:29;4.07;;;1.35;;
55609;SDS011;41486;52.502;13.486;2023-07-13T01:35:00;1.98;;;1.25;;
55609;SDS011;41486;52.502;13.486;2023-07-13T01:37:30;3.38;;;1.35;;
55609;SDS011;41486;52.502;13.486;2023-07-13T01:39:59;3.50;;;1.70;;
55609;SDS011;41486;52.502;13.486;2023-07-13T01:42:29;1.73;;;1.38;;
55609;SDS011;41486;52.502;13.486;2023-07-13T01:44:58;3.90;;;1.40;;
55609;SDS011;41486;52.502;13.486;2023-07-13T01:47:26;2.85;;;1.50;;
55609;SDS011;41486;52.502;13.486;2023-07-13T01:49:55;1.83;;;1.27;;
55609;SDS011;41486;52.502;13.486;2023-07-13T01:52:24;3.05;;;1.80;;
55609;SDS011;41486;52.502;13.486;2023-07-13T01:54:54;1.60;;;1.38;;
55609;SDS011;41486;52.502;13.486;2023-07-13T01:57:22;4.85;;;1.95;;
55609;SDS011;41486;52.502;13.486;2023-07-13T01:59:50;2.55;;;1.95;;
55609;SDS011;41486;52.502;13.486;2023-07-13T02:02:18;3.22;;;1.70;;
55609;SDS011;41486;52.502;13.486;2023-07-13T02:04:47;2.70;;;1.50;;
55609;SDS011;41486;52.502;13.486;2023-07-13T02:07:15;2.25;;;1.58;;
55609;SDS011;41486;52.502;13.486;2023-07-13T02:09:43;4.28;;;1.85;;
55609;SDS011;41486;52.502;13.486;2023-07-13T02:12:12;3.35;;;1.60;;
55609;SDS011;41486;52.502;13.486;2023-07-13T02:14:40;2.58;;;1.50;;
55609;SDS011;41486;52.502;13.486;2023-07-13T02:17:09;2.78;;;1.40;;
55609;SDS011;41486;52.502;13.486;2023-07-13T02:19:37;3.83;;;1.83;;
55609;SDS011;41486;52.502;13.486;2023-07-13T02:22:05;2.63;;;1.75;;
55609;SDS011;41486;52.502;13.486;2023-07-13T02:24:33;4.93;;;2.03;;
55609;SDS011;41486;52.502;13.486;2023-07-13T02:27:01;2.15;;;1.50;;
55609;SDS011;41486;52.502;13.486;2023-07-13T02:29:30;3.78;;;1.73;;
55609;SDS011;41486;52.502;13.486;2023-07-13T02:31:58;2.20;;;1.70;;
55609;SDS011;41486;52.502;13.486;2023-07-13T02:34:26;2.58;;;1.60;;
55609;SDS011;41486;52.502;13.486;2023-07-13T02:36:58;4.72;;;2.00;;
55609;SDS011;41486;52.502;13.486;2023-07-13T02:39:26;4.13;;;1.70;;
55609;SDS011;41486;52.502;13.486;2023-07-13T02:41:55;3.03;;;1.98;;
55609;SDS011;41486;52.502;13.486;2023-07-13T02:44:23;3.83;;;2.25;;
55609;SDS011;41486;52.502;13.486;2023-07-13T02:46:53;3.70;;;2.20;;
55609;SDS011;41486;52.502;13.486;2023-07-13T02:49:21;3.75;;;1.95;;
55609;SDS011;41486;52.502;13.486;2023-07-13T02:51:49;5.80;;;2.50;;
55609;SDS011;41486;52.502;13.486;2023-07-13T02:54:18;5.82;;;2.00;;
55609;SDS011;41486;52.502;13.486;2023-07-13T02:56:46;4.25;;;2.25;;
55609;SDS011;41486;52.502;13.486;2023-07-13T02:59:14;4.28;;;2.08;;
55609;SDS011;41486;52.502;13.486;2023-07-13T03:01:43;3.13;;;1.83;;
55609;SDS011;41486;52.502;13.486;2023-07-13T03:04:12;3.13;;;1.98;;
55609;SDS011;41486;52.502;13.486;2023-07-13T03:06:40;2.08;;;1.65;;
55609;SDS011;41486;52.502;13.486;2023-07-13T03:09:08;5.05;;;1.92;;
55609;SDS011;41486;52.502;13.486;2023-07-13T03:11:41;4.07;;;1.98;;
55609;SDS011;41486;52.502;13.486;2023-07-13T03:14:19;2.65;;;2.22;;
55609;SDS011;41486;52.502;13.486;2023-07-13T03:16:48;4.40;;;1.88;;
55609;SDS011;41486;52.502;13.486;2023-07-13T03:19:17;2.83;;;2.00;;
55609;SDS011;41486;52.502;13.486;2023-07-13T03:21:49;4.05;;;2.03;;
55609;SDS011;41486;52.502;13.486;2023-07-13T03:24:17;3.50;;;1.80;;
55609;SDS011;41486;52.502;13.486;2023-07-13T03:26:45;3.67;;;1.92;;
55609;SDS011;41486;52.502;13.486;2023-07-13T03:29:13;3.95;;;2.00;;
55609;SDS011;41486;52.502;13.486;2023-07-13T03:31:42;5.85;;;2.03;;
55609;SDS011;41486;52.502;13.486;2023-07-13T03:34:10;4.88;;;1.88;;
55609;SDS011;41486;52.502;13.486;2023-07-13T03:36:41;3.20;;;1.95;;
55609;SDS011;41486;52.502;13.486;2023-07-13T03:39:12;2.00;;;1.50;;
55609;SDS011;41486;52.502;13.486;2023-07-13T03:41:45;2.25;;;1.60;;
55609;SDS011;41486;52.502;13.486;2023-07-13T03:44:15;4.18;;;1.70;;
55609;SDS011;41486;52.502;13.486;2023-07-13T03:46:42;1.77;;;1.67;;
55609;SDS011;41486;52.502;13.486;2023-07-13T03:49:12;3.63;;;1.75;;
55609;SDS011;41486;52.502;13.486;2023-07-13T03:51:42;6.05;;;1.83;;
55609;SDS011;41486;52.502;13.486;2023-07-13T03:54:10;4.18;;;1.92;;
55609;SDS011;41486;52.502;13.486;2023-07-13T03:56:38;4.05;;;2.25;;
55609;SDS011;41486;52.502;13.486;2023-07-13T03:59:07;2.83;;;1.83;;
55609;SDS011;41486;52.502;13.486;2023-07-13T04:01:35;2.90;;;2.00;;
55609;SDS011;41486;52.502;13.486;2023-07-13T04:04:04;2.97;;;1.70;;
55609;SDS011;41486;52.502;13.486;2023-07-13T04:06:32;3.90;;;1.80;;
55609;SDS011;41486;52.502;13.486;2023-07-13T04:09:02;2.80;;;1.73;;
55609;SDS011;41486;52.502;13.486;2023-07-13T04:11:32;3.80;;;1.80;;
55609;SDS011;41486;52.502;13.486;2023-07-13T04:14:03;4.13;;;2.03;;
55609;SDS011;41486;52.502;13.486;2023-07-13T04:16:33;7.40;;;1.80;;
55609;SDS011;41486;52.502;13.486;2023-07-13T04:19:01;3.58;;;2.10;;
55609;SDS011;41486;52.502;13.486;2023-07-13T04:21:30;3.45;;;1.40;;
55609;SDS011;41486;52.502;13.486;2023-07-13T04:23:58;2.90;;;1.42;;
55609;SDS011;41486;52.502;13.486;2023-07-13T04:26:28;4.50;;;1.75;;
55609;SDS011;41486;52.502;13.486;2023-07-13T04:28:56;3.28;;;1.92;;
55609;SDS011;41486;52.502;13.486;2023-07-13T04:31:25;2.70;;;1.48;;
55609;SDS011;41486;52.502;13.486;2023-07-13T04:33:53;4.07;;;1.90;;
55609;SDS011;41486;52.502;13.486;2023-07-13T04:36:21;4.50;;;1.45;;
55609;SDS011;41486;52.502;13.486;2023-07-13T04:38:49;3.25;;;1.30;;
55609;SDS011;41486;52.502;13.486;2023-07-13T04:41:17;4.10;;;1.75;;
55609;SDS011;41486;52.502;13.486;2023-07-13T04:43:47;3.72;;;1.30;;
55609;SDS011;41486;52.502;13.486;2023-07-13T04:46:16;2.97;;;1.40;;
55609;SDS011;41486;52.502;13.486;2023-07-13T04:48:45;2.90;;;1.30;;
55609;SDS011;41486;52.502;13.486;2023-07-13T04:51:14;2.83;;;1.52;;
55609;SDS011;41486;52.502;13.486;2023-07-13T04:53:41;4.15;;;1.70;;
55609;SDS011;41486;52.502;13.486;2023-07-13T04:56:10;3.47;;;1.63;;
55609;SDS011;41486;52.502;13.486;2023-07-13T04:58:39;2.28;;;1.15;;
55609;SDS011;41486;52.502;13.486;2023-07-13T05:01:10;3.13;;;1.50;;
55609;SDS011;41486;52.502;13.486;2023-07-13T05:03:41;2.35;;;1.30;;
55609;SDS011;41486;52.502;13.486;2023-07-13T05:06:09;3.00;;;1.17;;
55609;SDS011;41486;52.502;13.486;2023-07-13T05:08:38;3.17;;;1.52;;
55609;SDS011;41486;52.502;13.486;2023-07-13T05:11:06;4.32;;;1.52;;
55609;SDS011;41486;52.502;13.486;2023-07-13T05:13:34;3.05;;;1.80;;
55609;SDS011;41486;52.502;13.486;2023-07-13T05:16:03;6.45;;;1.50;;
55609;SDS011;41486;52.502;13.486;2023-07-13T05:18:35;4.00;;;1.70;;
55609;SDS011;41486;52.502;13.486;2023-07-13T05:21:07;1.98;;;1.45;;
55609;SDS011;41486;52.502;13.486;2023-07-13T05:23:38;3.25;;;1.50;;
55609;SDS011;41486;52.502;13.486;2023-07-13T05:26:08;2.60;;;1.42;;
55609;SDS011;41486;52.502;13.486;2023-07-13T05:28:36;1.52;;;1.30;;
55609;SDS011;41486;52.502;13.486;2023-07-13T05:31:06;3.15;;;1.25;;
55609;SDS011;41486;52.502;13.486;2023-07-13T05:33:37;2.50;;;1.27;;
55609;SDS011;41486;52.502;13.486;2023-07-13T05:36:05;3.20;;;1.67;;
55609;SDS011;41486;52.502;13.486;2023-07-13T05:38:33;3.58;;;1.92;;
55609;SDS011;41486;52.502;13.486;2023-07-13T05:41:02;2.75;;;1.27;;
55609;SDS011;41486;52.502;13.486;2023-07-13T05:43:31;4.05;;;1.60;;
55609;SDS011;41486;52.502;13.486;2023-07-13T05:45:59;3.60;;;2.17;;
55609;SDS011;41486;52.502;13.486;2023-07-13T05:48:28;3.58;;;1.27;;
55609;SDS011;41486;52.502;13.486;2023-07-13T05:50:57;1.10;;;1.00;;
55609;SDS011;41486;52.502;13.486;2023-07-13T05:53:25;3.97;;;1.65;;
55609;SDS011;41486;52.502;13.486;2023-07-13T05:55:54;2.00;;;1.30;;
55609;SDS011;41486;52.502;13.486;2023-07-13T05:58:24;2.22;;;1.30;;
55609;SDS011;41486;52.502;13.486;2023-07-13T06:00:58;2.13;;;1.33;;
55609;SDS011;41486;52.502;13.486;2023-07-13T06:03:28;2.22;;;1.40;;
55609;SDS011;41486;52.502;13.486;2023-07-13T06:05:58;3.92;;;1.85;;
55609;SDS011;41486;52.502;13.486;2023-07-13T06:08:27;3.58;;;1.55;;
55609;SDS011;41486;52.502;13.486;2023-07-13T06:11:01;3.13;;;1.58;;
55609;SDS011;41486;52.502;13.486;2023-07-13T06:13:29;2.28;;;1.45;;
55609;SDS011;41486;52.502;13.486;2023-07-13T06:15:58;4.65;;;1.88;;
55609;SDS011;41486;52.502;13.486;2023-07-13T06:18:26;3.03;;;1.70;;
55609;SDS011;41486;52.502;13.486;2023-07-13T06:20:54;5.18;;;1.95;;
55609;SDS011;41486;52.502;13.486;2023-07-13T06:23:23;4.95;;;2.10;;
55609;SDS011;41486;52.502;13.486;2023-07-13T06:25:52;2.58;;;1.90;;
55609;SDS011;41486;52.502;13.486;2023-07-13T06:28:20;3.45;;;1.92;;
55609;SDS011;41486;52.502;13.486;2023-07-13T06:30:48;4.95;;;2.65;;
55609;SDS011;41486;52.502;13.486;2023-07-13T06:33:16;2.45;;;1.58;;
55609;SDS011;41486;52.502;13.486;2023-07-13T06:35:44;4.55;;;1.88;;
55609;SDS011;41486;52.502;13.486;2023-07-13T06:38:13;2.45;;;1.63;;
55609;SDS011;41486;52.502;13.486;2023-07-13T06:40:42;1.63;;;1.40;;
55609;SDS011;41486;52.502;13.486;2023-07-13T06:43:10;2.75;;;1.77;;
55609;SDS011;41486;52.502;13.486;2023-07-13T06:45:40;3.05;;;1.35;;
55609;SDS011;41486;52.502;13.486;2023-07-13T06:48:09;4.32;;;1.95;;
55609;SDS011;41486;52.502;13.486;2023-07-13T06:50:38;4.18;;;1.67;;
55609;SDS011;41486;52.502;13.486;2023-07-13T06:53:06;3.95;;;1.65;;
55609;SDS011;41486;52.502;13.486;2023-07-13T06:55:34;3.28;;;1.70;;
55609;SDS011;41486;52.502;13.486;2023-07-13T06:58:03;3.35;;;2.17;;
55609;SDS011;41486;52.502;13.486;2023-07-13T07:00:32;5.93;;;2.45;;
55609;SDS011;41486;52.502;13.486;2023-07-13T07:03:01;4.53;;;1.55;;
55609;SDS011;41486;52.502;13.486;2023-07-13T07:05:29;3.50;;;1.50;;
55609;SDS011;41486;52.502;13.486;2023-07-13T07:07:58;1.98;;;1.70;;
55609;SDS011;41486;52.502;13.486;2023-07-13T07:10:34;4.10;;;1.23;;
55609;SDS011;41486;52.502;13.486;2023-07-13T07:13:04;1.73;;;1.30;;
55609;SDS011;41486;52.502;13.486;2023-07-13T07:15:32;2.60;;;1.15;;
55609;SDS011;41486;52.502;13.486;2023-07-13T07:18:01;2.30;;;1.42;;
55609;SDS011;41486;52.502;13.486;2023-07-13T07:20:30;6.38;;;1.65;;
55609;SDS011;41486;52.502;13.486;2023-07-13T07:22:59;1.90;;;1.15;;
55609;SDS011;41486;52.502;13.486;2023-07-13T07:25:27;1.08;;;0.80;;
55609;SDS011;41486;52.502;13.486;2023-07-13T07:27:58;3.60;;;1.05;;
55609;SDS011;41486;52.502;13.486;2023-07-13T07:30:31;4.00;;;1.60;;
55609;SDS011;41486;52.502;13.486;2023-07-13T07:33:02;4.95;;;1.17;;
55609;SDS011;41486;52.502;13.486;2023-07-13T07:35:31;1.23;;;0.88;;
55609;SDS011;41486;52.502;13.486;2023-07-13T07:38:07;5.55;;;1.40;;
55609;SDS011;41486;52.502;13.486;2023-07-13T07:40:36;4.18;;;1.33;;
55609;SDS011;41486;52.502;13.486;2023-07-13T07:43:08;2.83;;;0.95;;
55609;SDS011;41486;52.502;13.486;2023-07-13T07:45:38;1.48;;;0.93;;
55609;SDS011;41486;52.502;13.486;2023-07-13T07:48:08;2.00;;;0.90;;
55609;SDS011;41486;52.502;13.486;2023-07-13T07:50:36;1.48;;;1.17;;
55609;SDS011;41486;52.502;13.486;2023-07-13T07:53:05;2.13;;;1.10;;
55609;SDS011;41486;52.502;13.486;2023-07-13T07:55:36;1.85;;;1.00;;
55609;SDS011;41486;52.502;13.486;2023-07-13T07:58:24;2.65;;;0.90;;
55609;SDS011;41486;52.502;13.486;2023-07-13T08:01:02;2.58;;;1.00;;
55609;SDS011;41486;52.502;13.486;2023-07-13T08:03:34;1.15;;;0.85;;
55609;SDS011;41486;52.502;13.486;2023-07-13T08:06:05;1.13;;;0.90;;
55609;SDS011;41486;52.502;13.486;2023-07-13T08:08:37;2.60;;;1.00;;
55609;SDS011;41486;52.502;13.486;2023-07-13T08:11:05;1.65;;;0.73;;
55609;SDS011;41486;52.502;13.486;2023-07-13T08:13:39;2.13;;;0.95;;
55609;SDS011;41486;52.502;13.486;2023-07-13T08:16:08;1.70;;;1.60;;
55609;SDS011;41486;52.502;13.486;2023-07-13T08:18:36;3.97;;;1.27;;
55609;SDS011;41486;52.502;13.486;2023-07-13T08:21:05;1.35;;;1.20;;
55609;SDS011;41486;52.502;13.486;2023-07-13T08:23:34;1.38;;;0.98;;
55609;SDS011;41486;52.502;13.486;2023-07-13T08:26:02;2.90;;;2.20;;
55609;SDS011;41486;52.502;13.486;2023-07-13T08:28:31;1.08;;;0.90;;
55609;SDS011;41486;52.502;13.486;2023-07-13T08:31:01;1.20;;;0.98;;
55609;SDS011;41486;52.502;13.486;2023-07-13T08:33:31;1.10;;;1.00;;
55609;SDS011;41486;52.502;13.486;2023-07-13T08:35:59;1.98;;;0.70;;
55609;SDS011;41486;52.502;13.486;2023-07-13T08:38:30;2.63;;;0.90;;
55609;SDS011;41486;52.502;13.486;2023-07-13T08:40:58;1.25;;;0.90;;
55609;SDS011;41486;52.502;13.486;2023-07-13T08:43:27;2.45;;;0.88;;
55609;SDS011;41486;52.502;13.486;2023-07-13T08:45:57;2.22;;;0.90;;
55609;SDS011;41486;52.502;13.486;2023-07-13T08:48:32;1.50;;;0.80;;
55609;SDS011;41486;52.502;13.486;2023-07-13T08:51:09;3.17;;;1.05;;
55609;SDS011;41486;52.502;13.486;2023-07-13T08:53:54;1.80;;;1.10;;
55609;SDS011;41486;52.502;13.486;2023-07-13T08:56:28;1.35;;;0.90;;
55609;SDS011;41486;52.502;13.486;2023-07-13T08:59:00;4.00;;;1.42;;
55609;SDS011;41486;52.502;13.486;2023-07-13T09:01:38;1.10;;;1.00;;
55609;SDS011;41486;52.502;13.486;2023-07-13T09:04:23;1.35;;;0.98;;
55609;SDS011;41486;52.502;13.486;2023-07-13T09:06:58;2.40;;;1.30;;
55609;SDS011;41486;52.502;13.486;2023-07-13T09:09:35;2.35;;;1.30;;
55609;SDS011;41486;52.502;13.486;2023-07-13T09:12:17;2.87;;;0.80;;
55609;SDS011;41486;52.502;13.486;2023-07-13T09:14:53;1.45;;;1.00;;
55609;SDS011;41486;52.502;13.486;2023-07-13T09:17:26;4.03;;;1.25;;
55609;SDS011;41486;52.502;13.486;2023-07-13T09:19:58;2.17;;;0.95;;
55609;SDS011;41486;52.502;13.486;2023-07-13T09:22:32;1.85;;;0.90;;
55609;SDS011;41486;52.502;13.486;2023-07-13T09:25:06;1.15;;;1.10;;
55609;SDS011;41486;52.502;13.486;2023-07-13T09:27:51;4.45;;;0.95;;
55609;SDS011;41486;52.502;13.486;2023-07-13T09:30:33;3.63;;;1.00;;
55609;SDS011;41486;52.502;13.486;2023-07-13T09:33:07;3.15;;;1.50;;
55609;SDS011;41486;52.502;13.486;2023-07-13T09:35:37;2.30;;;0.80;;
55609;SDS011;41486;52.502;13.486;2023-07-13T09:38:11;1.73;;;0.82;;
55609;SDS011;41486;52.502;13.486;2023-07-13T09:40:44;1.25;;;0.80;;
55609;SDS011;41486;52.502;13.486;2023-07-13T09:43:21;2.85;;;1.08;;
55609;SDS011;41486;52.502;13.486;2023-07-13T09:45:50;1.30;;;0.80;;
55609;SDS011;41486;52.502;13.486;2023-07-13T09:48:18;1.10;;;0.90;;
55609;SDS011;41486;52.502;13.486;2023-07-13T09:50:48;1.45;;;1.00;;
55609;SDS011;41486;52.502;13.486;2023-07-13T09:53:17;1.10;;;0.95;;
55609;SDS011;41486;52.502;13.486;2023-07-13T09:55:47;1.77;;;0.90;;
55609;SDS011;41486;52.502;13.486;2023-07-13T09:58:20;2.33;;;1.10;;
55609;SDS011;41486;52.502;13.486;2023-07-13T10:00:54;2.35;;;1.60;;
55609;SDS011;41486;52.502;13.486;2023-07-13T10:03:25;3.50;;;1.58;;
55609;SDS011;41486;52.502;13.486;2023-07-13T10:06:00;4.88;;;1.88;;
55609;SDS011;41486;52.502;13.486;2023-07-13T10:08:34;2.55;;;1.30;;
55609;SDS011;41486;52.502;13.486;2023-07-13T10:11:08;2.63;;;1.30;;
55609;SDS011;41486;52.502;13.486;2023-07-13T10:13:40;2.78;;;1.55;;
55609;SDS011;41486;52.502;13.486;2023-07-13T10:16:10;4.97;;;2.03;;
55609;SDS011;41486;52.502;13.486;2023-07-13T10:18:39;3.28;;;1.70;;
55609;SDS011;41486;52.502;13.486;2023-07-13T10:21:14;3.75;;;1.83;;
55609;SDS011;41486;52.502;13.486;2023-07-13T10:23:49;9.70;;;2.00;;
55609;SDS011;41486;52.502;13.486;2023-07-13T10:26:21;2.88;;;1.50;;
55609;SDS011;41486;52.502;13.486;2023-07-13T10:28:54;2.47;;;1.73;;
55609;SDS011;41486;52.502;13.486;2023-07-13T10:31:25;2.38;;;1.50;;
55609;SDS011;41486;52.502;13.486;2023-07-13T10:33:53;2.25;;;1.20;;
55609;SDS011;41486;52.502;13.486;2023-07-13T10:39:10;2.28;;;1.30;;
55609;SDS011;41486;52.502;13.486;2023-07-13T10:41:44;2.28;;;1.50;;
55609;SDS011;41486;52.502;13.486;2023-07-13T10:44:18;1.70;;;1.50;;
55609;SDS011;41486;52.502;13.486;2023-07-13T10:46:53;2.25;;;1.52;;
55609;SDS011;41486;52.502;13.486;2023-07-13T10:49:23;3.45;;;1.63;;
55609;SDS011;41486;52.502;13.486;2023-07-13T10:51:55;1.80;;;1.30;;
55609;SDS011;41486;52.502;13.486;2023-07-13T10:54:26;2.13;;;1.45;;
55609;SDS011;41486;52.502;13.486;2023-07-13T10:57:10;3.53;;;1.52;;
55609;SDS011;41486;52.502;13.486;2023-07-13T10:59:46;3.03;;;2.20;;
55609;SDS011;41486;52.502;13.486;2023-07-13T11:02:21;2.70;;;1.42;;
55609;SDS011;41486;52.502;13.486;2023-07-13T11:04:53;1.75;;;1.20;;
55609;SDS011;41486;52.502;13.486;2023-07-13T11:07:26;3.22;;;1.60;;
55609;SDS011;41486;52.502;13.486;2023-07-13T11:09:56;3.40;;;1.63;;
55609;SDS011;41486;52.502;13.486;2023-07-13T11:12:48;2.08;;;1.20;;
55609;SDS011;41486;52.502;13.486;2023-07-13T11:18:19;2.50;;;1.60;;
55609;SDS011;41486;52.502;13.486;2023-07-13T11:20:49;2.45;;;1.50;;
55609;SDS011;41486;52.502;13.486;2023-07-13T11:23:30;3.42;;;1.63;;
55609;SDS011;41486;52.502;13.486;2023-07-13T11:26:00;4.80;;;1.40;;
55609;SDS011;41486;52.502;13.486;2023-07-13T11:28:30;2.45;;;1.35;;
55609;SDS011;41486;52.502;13.486;2023-07-13T11:31:00;5.47;;;1.80;;
55609;SDS011;41486;52.502;13.486;2023-07-13T11:33:49;3.33;;;1.38;;
55609;SDS011;41486;52.502;13.486;2023-07-13T11:36:21;2.13;;;1.40;;
55609;SDS011;41486;52.502;13.486;2023-07-13T11:38:58;2.40;;;1.35;;
55609;SDS011;41486;52.502;13.486;2023-07-13T11:41:30;1.50;;;1.23;;
55609;SDS011;41486;52.502;13.486;2023-07-13T11:44:05;2.30;;;1.40;;
55609;SDS011;41486;52.502;13.486;2023-07-13T11:46:35;2.38;;;1.40;;
55609;SDS011;41486;52.502;13.486;2023-07-13T11:49:04;4.32;;;1.20;;
55609;SDS011;41486;52.502;13.486;2023-07-13T11:51:34;2.42;;;1.38;;
55609;SDS011;41486;52.502;13.486;2023-07-13T11:54:10;3.50;;;1.48;;
55609;SDS011;41486;52.502;13.486;2023-07-13T11:56:48;2.65;;;1.40;;
55609;SDS011;41486;52.502;13.486;2023-07-13T11:59:16;5.72;;;1.27;;
55609;SDS011;41486;52.502;13.486;2023-07-13T12:01:47;5.60;;;1.48;;
55609;SDS011;41486;52.502;13.486;2023-07-13T12:04:21;5.45;;;1.55;;
55609;SDS011;41486;52.502;13.486;2023-07-13T12:06:56;2.70;;;1.27;;
55609;SDS011;41486;52.502;13.486;2023-07-13T12:09:27;2.72;;;1.58;;
55609;SDS011;41486;52.502;13.486;2023-07-13T12:11:57;3.38;;;1.30;;
55609;SDS011;41486;52.502;13.486;2023-07-13T12:14:27;2.53;;;1.50;;
55609;SDS011;41486;52.502;13.486;2023-07-13T12:16:56;2.03;;;1.25;;
55609;SDS011;41486;52.502;13.486;2023-07-13T12:19:25;2.50;;;1.10;;
55609;SDS011;41486;52.502;13.486;2023-07-13T12:21:56;6.50;;;1.48;;
55609;SDS011;41486;52.502;13.486;2023-07-13T12:27:21;2.63;;;1.17;;
55609;SDS011;41486;52.502;13.486;2023-07-13T12:29:52;3.42;;;1.40;;
55609;SDS011;41486;52.502;13.486;2023-07-13T12:32:28;2.17;;;1.30;;
55609;SDS011;41486;52.502;13.486;2023-07-13T12:35:04;2.42;;;1.33;;
55609;SDS011;41486;52.502;13.486;2023-07-13T12:37:42;1.70;;;1.20;;
55609;SDS011;41486;52.502;13.486;2023-07-13T12:40:14;4.05;;;1.50;;
55609;SDS011;41486;52.502;13.486;2023-07-13T12:42:45;3.28;;;1.30;;
55609;SDS011;41486;52.502;13.486;2023-07-13T12:45:17;2.53;;;1.38;;
55609;SDS011;41486;52.502;13.486;2023-07-13T12:47:48;2.00;;;1.02;;
55609;SDS011;41486;52.502;13.486;2023-07-13T12:50:18;3.65;;;1.20;;
55609;SDS011;41486;52.502;13.486;2023-07-13T12:52:50;3.42;;;1.40;;
55609;SDS011;41486;52.502;13.486;2023-07-13T12:55:21;2.38;;;1.50;;
55609;SDS011;41486;52.502;13.486;2023-07-13T12:57:52;2.13;;;1.13;;
55609;SDS011;41486;52.502;13.486;2023-07-13T13:00:23;8.00;;;1.70;;
55609;SDS011;41486;52.502;13.486;2023-07-13T13:02:53;2.97;;;1.10;;
55609;SDS011;41486;52.502;13.486;2023-07-13T13:05:42;1.50;;;1.05;;
55609;SDS011;41486;52.502;13.486;2023-07-13T13:08:12;2.00;;;1.20;;
55609;SDS011;41486;52.502;13.486;2023-07-13T13:10:41;3.05;;;1.30;;
55609;SDS011;41486;52.502;13.486;2023-07-13T13:13:09;1.70;;;1.20;;
55609;SDS011;41486;52.502;13.486;2023-07-13T13:15:38;1.30;;;1.00;;
55609;SDS011;41486;52.502;13.486;2023-07-13T13:18:11;2.33;;;1.08;;
55609;SDS011;41486;52.502;13.486;2023-07-13T13:20:44;2.75;;;1.20;;
55609;SDS011;41486;52.502;13.486;2023-07-13T13:23:13;2.22;;;1.20;;
55609;SDS011;41486;52.502;13.486;2023-07-13T13:25:46;2.78;;;1.10;;
55609;SDS011;41486;52.502;13.486;2023-07-13T13:28:16;3.67;;;1.05;;
55609;SDS011;41486;52.502;13.486;2023-07-13T13:30:47;1.92;;;1.15;;
55609;SDS011;41486;52.502;13.486;2023-07-13T13:33:18;2.80;;;1.05;;
55609;SDS011;41486;52.502;13.486;2023-07-13T13:35:48;4.07;;;1.10;;
55609;SDS011;41486;52.502;13.486;2023-07-13T13:38:17;3.08;;;1.08;;
55609;SDS011;41486;52.502;13.486;2023-07-13T13:40:49;1.58;;;0.90;;
55609;SDS011;41486;52.502;13.486;2023-07-13T13:43:17;1.67;;;1.05;;
55609;SDS011;41486;52.502;13.486;2023-07-13T13:45:46;1.33;;;0.95;;
55609;SDS011;41486;52.502;13.486;2023-07-13T13:48:15;6.30;;;1.33;;
55609;SDS011;41486;52.502;13.486;2023-07-13T13:53:16;2.00;;;1.08;;
55609;SDS011;41486;52.502;13.486;2023-07-13T13:55:44;1.27;;;0.95;;
55609;SDS011;41486;52.502;13.486;2023-07-13T13:58:14;0.85;;;0.82;;
55609;SDS011;41486;52.502;13.486;2023-07-13T14:00:42;1.70;;;1.00;;
55609;SDS011;41486;52.502;13.486;2023-07-13T14:03:13;2.75;;;0.77;;
55609;SDS011;41486;52.502;13.486;2023-07-13T14:05:44;1.40;;;1.00;;
55609;SDS011;41486;52.502;13.486;2023-07-13T14:08:14;1.42;;;0.93;;
55609;SDS011;41486;52.502;13.486;2023-07-13T14:10:44;4.38;;;1.30;;
55609;SDS011;41486;52.502;13.486;2023-07-13T14:13:16;1.35;;;0.60;;
55609;SDS011;41486;52.502;13.486;2023-07-13T14:15:46;1.97;;;1.00;;
55609;SDS011;41486;52.502;13.486;2023-07-13T14:18:15;1.10;;;0.65;;
55609;SDS011;41486;52.502;13.486;2023-07-13T14:20:45;3.08;;;1.33;;
55609;SDS011;41486;52.502;13.486;2023-07-13T14:23:13;2.65;;;1.08;;
55609;SDS011;41486;52.502;13.486;2023-07-13T14:25:42;2.25;;;0.75;;
55609;SDS011;41486;52.502;13.486;2023-07-13T14:28:15;9.23;;;2.15;;
55609;SDS011;41486;52.502;13.486;2023-07-13T14:30:49;1.70;;;0.90;;
55609;SDS011;41486;52.502;13.486;2023-07-13T14:33:17;2.00;;;0.80;;
55609;SDS011;41486;52.502;13.486;2023-07-13T14:35:46;2.55;;;1.02;;
55609;SDS011;41486;52.502;13.486;2023-07-13T14:38:17;2.97;;;0.90;;
55609;SDS011;41486;52.502;13.486;2023-07-13T14:40:47;1.10;;;0.70;;
55609;SDS011;41486;52.502;13.486;2023-07-13T14:43:16;2.97;;;1.00;;
55609;SDS011;41486;52.502;13.486;2023-07-13T14:45:46;3.05;;;1.15;;
55609;SDS011;41486;52.502;13.486;2023-07-13T14:48:18;3.58;;;1.65;;
55609;SDS011;41486;52.502;13.486;2023-07-13T14:50:49;2.53;;;1.52;;
55609;SDS011;41486;52.502;13.486;2023-07-13T14:53:20;1.25;;;0.85;;
55609;SDS011;41486;52.502;13.486;2023-07-13T14:55:48;2.13;;;0.93;;
55609;SDS011;41486;52.502;13.486;2023-07-13T14:58:17;1.63;;;0.77;;
55609;SDS011;41486;52.502;13.486;2023-07-13T15:00:47;5.70;;;1.05;;
55609;SDS011;41486;52.502;13.486;2023-07-13T15:03:18;2.50;;;0.90;;
55609;SDS011;41486;52.502;13.486;2023-07-13T15:05:51;1.88;;;1.05;;
55609;SDS011;41486;52.502;13.486;2023-07-13T15:08:20;2.58;;;0.90;;